Flight Track Log - Related Links

Times and Time Zones

All times are in EST time to prevent confusion due to time zone crossing. See the RAX172 flight status page for this flight to view local times or setup timezone preferences in your user account.

Time Position Orientation Groundspeed Altitude Reporting Facility
EST Latitude Longitude Course Direction KTS MPH feet Rate Location/Type
Fri 06:32:40 PM 36.1528 -95.8094 113° Southeast 291 335 6,100  Level Kansas Center
Fri 06:32:59 PM 36.1578 -95.7836 77° East 294 338 6,700 2,824 Climbing Kansas Center
Fri 06:33:48 PM 36.1725 -95.6981 78° East 327 376 9,300 2,951 Climbing Kansas Center
Fri 06:34:00 PM 36.1753 -95.6794 80° East 301 346 9,700 2,795 Climbing Kansas Center
Fri 06:35:01 PM 36.2194 -95.5853 60° Northeast 310 357 12,700 2,806 Climbing Kansas Center
Fri 06:36:04 PM 36.2803 -95.5031 47° Northeast 316 364 15,500 2,780 Climbing Kansas Center
Fri 06:37:04 PM 36.3386 -95.4217 48° Northeast 317 365 18,400 2,371 Climbing Kansas Center
Fri 06:38:08 PM 36.3956 -95.3364 50° Northeast 322 371 20,400 2,304 Climbing Kansas Center
Fri 06:39:09 PM 36.4667 -95.2292 50° Northeast 333 383 23,200 2,529 Climbing Kansas Center
Fri 06:40:09 PM 36.4936 -95.1175 73° East 338 389 25,500 1,742 Climbing Kansas Center
Fri 06:41:13 PM 36.5292 -95.0150 67° East 340 391 26,800 1,392 Climbing Kansas Center
Fri 06:42:14 PM 36.5661 -94.9056 67° East 343 395 28,400 1,463 Climbing Kansas Center
Fri 06:43:16 PM 36.6019 -94.7953 68° East 344 396 29,800 1,258 Climbing Kansas Center
Fri 06:44:18 PM 36.6469 -94.6583 68° East 352 405 31,000 1,200 Climbing Kansas Center
Fri 06:45:21 PM 36.6839 -94.5428 68° East 357 411 32,300 1,258 Climbing Kansas Center
Fri 06:46:22 PM 36.7211 -94.4322 67° East 350 403 33,600 871 Climbing Kansas Center
Fri 06:47:25 PM 36.7583 -94.3236 67° East 343 395 34,100 629 Climbing Kansas Center
Fri 06:48:26 PM 36.7975 -94.2108 67° East 349 402 34,900 484 Climbing Kansas Center
Fri 06:49:29 PM 36.8389 -94.0978 65° Northeast 355 409 35,100  Climbing Kansas Center
Fri 06:50:31 PM 36.8797 -93.9736 68° East 377 434 34,900 -49 Descending Kansas Center
Fri 06:51:32 PM 36.9197 -93.8453 69° East 392 451 35,000 49 Climbing Kansas Center
Fri 06:52:34 PM 36.9669 -93.6936 69° East 396 456 35,000  Level Kansas Center
Fri 06:53:35 PM 37.0056 -93.5633 70° East 397 457 35,000  Level Kansas Center
Fri 06:54:36 PM 37.0442 -93.4317 70° East 400 460 35,000  Level Kansas Center
Fri 06:55:39 PM 37.0867 -93.3019 68° East 403 464 35,000  Level Kansas Center
Fri 06:56:41 PM 37.1311 -93.1733 67° East 402 463 35,000  Level Kansas Center
Fri 06:57:42 PM 37.1747 -93.0436 67° East 403 464 35,000  Level Kansas Center
Fri 06:58:43 PM 37.2256 -92.8892 68° East 400 460 35,000  Level Kansas Center
Fri 06:59:47 PM 37.2661 -92.7592 69° East 399 459 35,000  Level Kansas Center
Fri 07:00:49 PM 37.3075 -92.6292 68° East 401 461 35,000  Level Kansas Center
Fri 07:01:50 PM 37.3478 -92.4972 69° East 402 463 35,000  Level Kansas Center
Fri 07:02:51 PM 37.3881 -92.3661 69° East 404 465 35,000  Level Kansas Center
Fri 07:03:55 PM 37.4294 -92.2322 69° East 408 470 35,000  Level Kansas Center
Fri 07:04:56 PM 37.4728 -92.1022 67° East 405 466 35,000  Level Kansas Center
Fri 07:05:57 PM 37.5244 -91.9472 67° East 401 461 35,000  Level Kansas Center
Fri 07:06:59 PM 37.5656 -91.8142 69° East 405 466 35,000  Level Kansas Center
Fri 07:08:00 PM 37.6058 -91.6794 69° East 409 471 35,000  Level Kansas Center
Fri 07:09:04 PM 37.6442 -91.5447 70° East 409 471 35,000  Level Kansas Center
Fri 07:10:06 PM 37.6842 -91.4092 70° East 409 471 35,000  Level Kansas Center
Fri 07:11:07 PM 37.7233 -91.2725 70° East 413 475 35,000  Level Kansas Center
Fri 07:12:10 PM 37.7636 -91.1358 70° East 414 476 35,000  Level Kansas Center
Fri 07:13:11 PM 37.8050 -90.9936 70° East 413 475 35,000  Level Kansas Center
Fri 07:14:13 PM 37.8447 -90.8569 70° East 415 478 35,000  Level Kansas Center
Fri 07:15:13 PM 37.8972 -90.6958 68° East 415 478 35,000  Level Kansas Center
Fri 07:16:17 PM 37.9406 -90.5597 68° East 418 481 35,000  Level Kansas Center
Fri 07:17:18 PM 37.9819 -90.4219 69° East 420 483 35,000  Level Kansas Center
Fri 07:18:19 PM 38.0217 -90.2800 70° East 427 491 35,000  Level Kansas Center
Fri 07:19:23 PM 38.0583 -90.1392 72° East 425 489 35,000  Level Kansas Center
Fri 07:20:24 PM 38.1072 -89.9694 70° East 423 487 35,000  Level Kansas Center
Fri 07:21:25 PM 38.1467 -89.8344 70° East 420 483 35,000  Level Kansas Center
Fri 07:22:28 PM 38.1856 -89.6944 70° East 422 486 35,000  Level Kansas Center
Fri 07:23:30 PM 38.2261 -89.5528 70° East 427 491 35,000  Level Kansas Center
Fri 07:24:30 PM 38.2650 -89.4108 71° East 428 493 35,000  Level Kansas Center
Fri 07:25:35 PM 38.3044 -89.2686 70° East 428 493 35,000  Level Kansas Center
Fri 07:26:35 PM 38.3528 -89.0981 70° East 428 493 35,000  Level Kansas Center
Fri 07:27:36 PM 38.3956 -88.9456 70° East 428 493 35,000  Level Kansas Center
Fri 07:28:40 PM 38.4356 -88.8022 70° East 430 495 35,000  Level Kansas Center
Fri 07:29:41 PM 38.4736 -88.6703 70° East 429 494 35,000  Level Kansas Center
Fri 07:30:42 PM 38.5156 -88.5286 69° East 433 498 35,000  Level Kansas Center
Fri 07:31:44 PM 38.5642 -88.3533 70° East 434 499 35,000  Level Kansas Center
Fri 07:32:48 PM 38.6042 -88.2069 71° East 433 498 35,000  Level Kansas Center
Fri 07:33:49 PM 38.6447 -88.0603 70° East 433 498 35,000  Level Kansas Center
Fri 07:34:50 PM 38.6839 -87.9108 71° East 437 503 35,000  Level Kansas Center
Fri 07:35:20 PM 38.7000 -87.8522 71° East 436 502 35,000 -391 Level Indianapolis Center
Fri 07:36:22 PM 38.7483 -87.6714 71° East 443 510 34,400 -488 Descending Indianapolis Center
Fri 07:37:23 PM 38.7878 -87.5153 72° East 453 521 34,000 -537 Descending Indianapolis Center
Fri 07:38:25 PM 38.8236 -87.3583 74° East 454 522 33,300 -919 Descending Indianapolis Center
Fri 07:39:27 PM 38.8625 -87.1983 73° East 462 532 32,100 -1,122 Descending Indianapolis Center
Fri 07:40:28 PM 38.9056 -87.0397 71° East 464 534 31,000 -1,024 Descending Indianapolis Center
Fri 07:41:30 PM 38.9475 -86.8814 71° East 464 534 30,000 -878 Descending Indianapolis Center
Fri 07:42:31 PM 38.9872 -86.7239 72° East 460 529 29,200 -488 Descending Indianapolis Center
Fri 07:43:33 PM 39.0225 -86.5592 75° East 452 520 29,000 -435 Descending Indianapolis Center
Fri 07:44:35 PM 39.0372 -86.4011 83° East 452 520 28,300 -1,220 Descending Indianapolis Center
Fri 07:45:36 PM 39.0389 -86.2322 89° East 473 544 26,500 -1,805 Descending Indianapolis Center
Fri 07:46:38 PM 39.0469 -86.0581 87° East 493 567 24,600 -1,161 Descending Indianapolis Center
Fri 07:47:40 PM 39.0714 -85.8875 79° East 491 565 24,100 -488 Descending Indianapolis Center
Fri 07:48:41 PM 39.1281 -85.7108 67° East 451 519 23,600 -1,220 Descending Indianapolis Center
Fri 07:49:43 PM 39.1769 -85.5603 67° East 458 527 21,600 -1,854 Descending Indianapolis Center
Fri 07:50:44 PM 39.2233 -85.4108 68° East 454 522 19,800 -1,756 Descending Indianapolis Center
Fri 07:51:46 PM 39.2694 -85.2656 68° East 444 511 18,000 -1,694 Descending Indianapolis Center
Fri 07:52:48 PM 39.3142 -85.1261 67° East 426 490 16,300 -2,143 Descending Indianapolis Center
Fri 07:52:56 PM 39.3267 -85.0839 69° East 419 482 15,500 -2,262 Descending Indianapolis Center
Fri 07:53:49 PM 39.3575 -84.9900 67° East 415 478 14,000 -2,222 Descending Indianapolis Center
Fri 07:53:50 PM 39.3650 -84.9692 65° Northeast 408 470 13,500 -2,323 Descending Indianapolis Center
Fri 07:54:51 PM 39.4044 -84.8433 68° East 376 433 11,600 -2,066 Descending Indianapolis Center
Fri 07:55:52 PM 39.4378 -84.7189 71° East 366 421 9,300 -2,479 Descending Indianapolis Center
Fri 07:56:52 PM 39.4636 -84.5964 75° East 338 389 6,600 -2,419 Descending Indianapolis Center
Fri 07:56:54 PM 39.4619 -84.5994 235° Southwest 353 406 6,800 6,000 Climbing Indianapolis Center
Fri 07:58:00 PM 39.4983 -84.4583 75° East  Level FlightAware
Fri 08:05:00 PM 39.5167 -84.3833 72° East  Level FlightAware
Fri 08:06:00 PM 39.5318 -84.3964 72° East  Level Estimated
Fri 08:07:00 PM 39.5318 -84.3964 72° East  Level Estimated

Login

Don't have an account? Register now (free) for customized features, flight alerts, and more!